Bookmark and Share
Track history (hours):
 

Csk Radiance

Last reported at 2014-Apr-14 18:33 UTC. Time now 2014-Apr-16 16:03 UTC.
Position N 22°23' E 119°55'.

Length 289 m; draft 10.4 m.

Type: Cargo ship. MMSI: 477918000.

NotesDate/timePositionNaut miles runAvg speedWind from/ knotsBaromVisibWave heightAir tempDewpointWater temp
2014-Apr-14 18:33N 22°23' E 119°55'1414.5
2014-Apr-14 17:34N 22°37' E 119°54'1414.2
2014-Apr-14 16:33N 22°52' E 119°54'141 7.3
2014-Apr-13 21:19N 24°27' E 118°00'0 0.0
2014-Apr-13 18:13N 24°27' E 118°00'0 0.0
2014-Apr-13 17:31N 24°27' E 118°00'0 0.0
2014-Apr-13 16:31N 24°27' E 118°00'0 0.0
2014-Apr-13 15:31N 24°27' E 118°00'0 0.0
2014-Apr-13 09:13N 24°27' E 118°00'0 0.0
2014-Apr-13 08:25N 24°27' E 118°00'0 0.0
2014-Apr-13 07:31N 24°27' E 118°00'0 0.0
2014-Apr-13 06:19N 24°27' E 118°00'0 0.0
2014-Apr-13 05:19N 24°27' E 118°00'0 0.0
2014-Apr-13 04:31N 24°27' E 118°00'0 0.0
2014-Apr-13 03:25N 24°27' E 118°00'0 0.0
2014-Apr-13 01:25N 24°27' E 118°00'0 0.0
2014-Apr-13 00:13N 24°27' E 118°00'0 0.0
2014-Apr-12 23:31N 24°27' E 118°00'0 0.0
2014-Apr-12 22:25N 24°27' E 118°00'0 0.0
2014-Apr-12 21:25N 24°27' E 118°00'0 0.0
2014-Apr-12 20:25N 24°27' E 118°00'0 0.0
2014-Apr-12 19:31N 24°27' E 118°00'0 0.0
2014-Apr-12 18:31N 24°27' E 118°00'0 0.0
2014-Apr-12 17:31N 24°27' E 118°00'0 0.0
2014-Apr-12 16:13N 24°27' E 118°00'0 0.0
2014-Apr-12 15:19N 24°27' E 118°00'0 0.0
2014-Apr-12 10:25N 24°27' E 118°00'0 0.0
2014-Apr-12 09:31N 24°27' E 118°00'0 0.0
2014-Apr-12 08:25N 24°27' E 118°00'0 0.0
2014-Apr-12 07:31N 24°27' E 118°00'0 0.0
2014-Apr-12 05:31N 24°27' E 118°00'0 0.0
2014-Apr-12 04:31N 24°27' E 118°00'0 0.0
2014-Apr-12 03:31N 24°27' E 118°00'0 0.0
2014-Apr-12 02:25N 24°27' E 118°00'0 0.0
2014-Apr-12 01:07N 24°27' E 118°00'0 0.0
2014-Apr-12 00:31N 24°27' E 118°00'0 0.0
2014-Apr-11 22:31N 24°27' E 118°00'0 0.0
2014-Apr-11 21:31N 24°27' E 118°00'0 0.0
2014-Apr-11 20:19N 24°27' E 118°00'0 0.0
2014-Apr-11 19:19N 24°27' E 118°00'0 0.0
2014-Apr-11 18:04N 24°27' E 118°00'0 0.0
2014-Apr-11 07:07N 24°27' E 118°00'0 0.0
2014-Apr-11 05:31N 24°27' E 118°00'0 0.0
2014-Apr-11 04:31N 24°27' E 118°00'0 0.0
2014-Apr-11 02:31N 24°27' E 118°00'0 0.0
2014-Apr-11 00:31N 24°27' E 118°00'0 0.0
2014-Apr-10 22:25N 24°27' E 118°00'0 0.0
2014-Apr-10 21:25N 24°27' E 118°00'0 0.0
2014-Apr-10 20:25N 24°27' E 118°00'0 0.0
2014-Apr-10 19:31N 24°27' E 118°00'0 0.0
2014-Apr-10 18:25N 24°27' E 118°00'0 0.0
2014-Apr-10 17:25N 24°27' E 118°00'0 0.0
2014-Apr-10 16:13N 24°27' E 118°00'0 0.0
2014-Apr-10 15:31N 24°27' E 118°00'0 0.0
2014-Apr-10 09:31N 24°27' E 118°00'0 0.0
2014-Apr-10 08:25N 24°27' E 118°00'0 0.0
2014-Apr-10 07:19N 24°27' E 118°00'0 0.0
2014-Apr-10 06:07N 24°27' E 118°00'0 0.0
2014-Apr-10 05:13N 24°27' E 118°00'0 0.0
2014-Apr-10 04:31N 24°27' E 118°00'0 0.0
2014-Apr-10 03:31N 24°27' E 118°00'0 0.0
2014-Apr-10 02:25N 24°27' E 118°00'0 0.1
2014-Apr-10 01:33N 24°27' E 118°00'7 7.1
2014-Apr-10 00:33N 24°23' E 118°07'9 8.5
2014-Apr-09 23:33N 24°17' E 118°13'9 8.8
2014-Apr-09 22:33N 24°10' E 118°19'4 3.4
2014-Apr-09 21:26N 24°07' E 118°22'0 0.1
2014-Apr-09 19:14N 24°07' E 118°21'0 0.1
2014-Apr-09 18:26N 24°07' E 118°21'0 0.1
2014-Apr-09 17:26N 24°07' E 118°21'0 0.0
2014-Apr-09 16:14N 24°07' E 118°21'0 0.1
2014-Apr-09 15:26N 24°07' E 118°22'0 0.0
2014-Apr-09 13:26N 24°07' E 118°21'0 0.1
2014-Apr-09 12:26N 24°07' E 118°21'0 0.1
2014-Apr-09 11:20N 24°07' E 118°21'0 0.1
2014-Apr-09 10:32N 24°07' E 118°21'0 0.1
2014-Apr-09 09:26N 24°07' E 118°21'0 0.1
2014-Apr-09 08:32N 24°07' E 118°21'0 0.2
2014-Apr-09 07:32N 24°07' E 118°21'0 0.1
2014-Apr-09 06:26N 24°07' E 118°22'0 0.0
2014-Apr-09 05:26N 24°07' E 118°22'0 0.0
2014-Apr-09 04:20N 24°07' E 118°22'0 0.1
2014-Apr-09 03:20N 24°07' E 118°21'0 0.0
2014-Apr-09 02:32N 24°07' E 118°21'0 0.0
2014-Apr-08 20:08N 24°07' E 118°22'0 0.2
2014-Apr-08 19:14N 24°07' E 118°22'0 0.1
2014-Apr-08 18:32N 24°07' E 118°22'0 0.0
2014-Apr-08 09:08N 24°07' E 118°22'0 0.1
2014-Apr-08 08:26N 24°07' E 118°22'0 0.1
2014-Apr-08 07:32N 24°07' E 118°22'0 0.0
2014-Apr-08 06:08N 24°07' E 118°22'0 0.1
2014-Apr-08 05:32N 24°07' E 118°22'0 0.2
2014-Apr-08 04:09N 24°07' E 118°22'3 5.0
2014-Apr-08 03:29N 24°07' E 118°25'8 8.1
2014-Apr-08 02:30N 24°05' E 118°34'105 9.5
2014-Apr-07 15:33N 22°51' E 119°54'1212.0
2014-Apr-07 14:33N 22°39' E 119°54'1211.8
2014-Apr-07 13:34N 22°27' E 119°54'  

Dump ship's entire track history

sailing weather and tide predictions

Csk Radiance — VRXB4 — position and weather